Time;durP1;ratioP1;P1;durP2;ratioP2;P2;SDS_P1;SDS_P2;PMS_P1;PMS_P2;Temp;Humidity;BMP_temperature;BMP_pressure;BME280_temperature;BME280_humidity;BME280_pressure;Samples;Min_cycle;Max_cycle;Signal;HPM_P1;HPM_P2
2022/04/04 00:00:09;;;;;;;9.65;7.10;;;;;;;3.92;56.23;95656.19;5108170;27;20451;-69
2022/04/04 00:02:34;;;;;;;10.48;6.75;;;;;;;3.94;55.77;95653.41;5106660;28;20020;-69
2022/04/04 00:05:01;;;;;;;7.72;6.68;;;;;;;3.98;55.47;95657.50;5107367;28;20031;-69
2022/04/04 00:07:27;;;;;;;9.75;6.57;;;;;;;3.94;54.94;95658.72;5107562;27;20093;-67
2022/04/04 00:09:52;;;;;;;8.48;6.38;;;;;;;3.91;55.27;95659.00;5107257;28;20030;-72
2022/04/04 00:12:18;;;;;;;9.13;6.40;;;;;;;3.90;55.41;95659.97;5107709;28;20020;-68
2022/04/04 00:14:43;;;;;;;8.73;6.20;;;;;;;3.91;54.88;95661.63;5107070;28;20027;-69
2022/04/04 00:17:09;;;;;;;8.98;6.55;;;;;;;3.91;55.12;95659.84;5106535;28;20028;-70
2022/04/04 00:19:34;;;;;;;11.38;7.07;;;;;;;3.83;55.20;95660.50;5108011;28;20042;-70
2022/04/04 00:22:00;;;;;;;11.05;7.10;;;;;;;3.72;55.65;95668.50;5107859;28;20426;-69
2022/04/04 00:24:25;;;;;;;12.50;6.57;;;;;;;3.71;56.23;95659.69;5106495;28;20068;-69
2022/04/04 00:26:50;;;;;;;9.25;6.80;;;;;;;3.70;55.91;95660.69;5108885;28;20046;-69
2022/04/04 00:29:16;;;;;;;9.68;6.65;;;;;;;3.75;55.54;95659.44;5107325;28;20028;-72
2022/04/04 00:31:41;;;;;;;6.93;5.88;;;;;;;3.76;55.04;95661.97;5108147;28;20020;-68
2022/04/04 00:34:07;;;;;;;8.40;6.13;;;;;;;3.76;54.77;95655.81;5107330;28;20028;-69
2022/04/04 00:36:32;;;;;;;7.95;6.13;;;;;;;3.72;54.70;95660.56;5107868;28;20069;-70
2022/04/04 00:38:58;;;;;;;7.72;6.07;;;;;;;3.76;54.95;95656.66;5107842;28;20053;-68
2022/04/04 00:41:23;;;;;;;8.38;5.47;;;;;;;3.70;55.35;95651.88;5107331;28;20031;-69
2022/04/04 00:43:52;;;;;;;8.18;5.60;;;;;;;3.71;55.57;95650.88;5107859;28;20675;-70
2022/04/04 00:46:18;;;;;;;8.32;6.07;;;;;;;3.71;55.31;95649.09;5107106;28;20028;-69
2022/04/04 00:48:44;;;;;;;7.95;5.47;;;;;;;3.62;55.39;95646.34;5106664;28;20027;-69
2022/04/04 00:51:09;;;;;;;9.10;5.93;;;;;;;3.60;55.87;95651.78;5106828;28;20381;-72
2022/04/04 00:53:35;;;;;;;6.80;5.25;;;;;;;3.68;55.35;95665.25;5106300;28;20019;-69
2022/04/04 00:56:00;;;;;;;7.50;5.75;;;;;;;3.66;55.25;95667.19;5107428;28;20410;-70
2022/04/04 00:58:26;;;;;;;8.20;5.20;;;;;;;3.68;54.77;95659.09;5106142;28;20555;-70
2022/04/04 01:00:52;;;;;;;7.45;5.65;;;;;;;3.55;56.02;95656.63;5087971;28;20039;-69
2022/04/04 01:03:17;;;;;;;7.63;5.60;;;;;;;3.48;56.10;95658.13;5088610;28;20469;-70
2022/04/04 01:05:44;;;;;;;9.68;6.80;;;;;;;3.54;56.02;95663.78;5089264;28;20030;-69
2022/04/04 01:08:13;;;;;;;8.32;6.10;;;;;;;3.51;56.37;95663.19;5105366;28;20019;-67
2022/04/04 01:10:42;;;;;;;11.38;6.50;;;;;;;3.51;55.53;95663.19;5107258;28;20026;-69
2022/04/04 01:13:09;;;;;;;10.68;7.00;;;;;;;3.44;55.59;95657.53;5104981;28;20043;-69
2022/04/04 01:15:35;;;;;;;10.30;6.82;;;;;;;3.35;56.24;95653.84;5107296;27;20177;-73
2022/04/04 01:18:02;;;;;;;9.70;6.93;;;;;;;3.37;56.02;95656.38;5104994;28;20054;-68
2022/04/04 01:20:27;;;;;;;9.80;6.88;;;;;;;3.40;55.76;95659.59;5105582;28;20123;-69
2022/04/04 01:22:53;;;;;;;10.93;6.30;;;;;;;3.34;56.01;95658.28;5106731;28;20039;-70
2022/04/04 01:25:25;;;;;;;7.60;5.22;;;;;;;3.29;56.24;95659.66;5106270;28;20062;-68
2022/04/04 01:27:51;;;;;;;8.18;5.85;;;;;;;3.24;55.94;95654.69;5071948;28;20028;-68
2022/04/04 01:30:17;;;;;;;7.82;5.60;;;;;;;3.27;56.22;95650.97;5087904;28;20044;-68
2022/04/04 01:32:44;;;;;;;7.68;5.75;;;;;;;3.24;56.41;95640.63;5106840;28;20035;-68
2022/04/04 01:35:09;;;;;;;7.95;5.63;;;;;;;3.30;55.80;95645.41;5106352;28;20034;-68
2022/04/04 01:37:35;;;;;;;7.80;5.55;;;;;;;3.27;55.60;95637.72;5106864;28;20015;-68
2022/04/04 01:40:01;;;;;;;7.55;5.25;;;;;;;3.20;55.48;95640.88;5106360;28;20027;-68
2022/04/04 01:42:26;;;;;;;8.98;5.47;;;;;;;3.15;55.69;95632.47;5106004;27;20024;-69
2022/04/04 01:44:51;;;;;;;7.80;6.00;;;;;;;3.18;55.43;95641.97;5106513;28;20471;-68
2022/04/04 01:47:17;;;;;;;8.35;5.70;;;;;;;3.14;55.42;95640.53;5105874;28;20470;-69
2022/04/04 01:49:42;;;;;;;9.07;5.43;;;;;;;3.16;55.67;95643.91;5105567;28;20026;-71
2022/04/04 01:52:08;;;;;;;8.85;5.63;;;;;;;3.18;55.18;95655.22;5104305;28;20081;-69
2022/04/04 01:54:33;;;;;;;6.78;5.47;;;;;;;3.22;55.11;95660.13;5106293;28;20131;-68
2022/04/04 01:56:59;;;;;;;7.45;5.72;;;;;;;3.14;55.69;95657.28;5105888;28;20579;-68
2022/04/04 01:59:24;;;;;;;6.35;4.78;;;;;;;3.20;54.94;95655.94;5106053;28;20446;-68
2022/04/04 02:01:49;;;;;;;7.68;5.28;;;;;;;3.19;54.98;95654.25;5087812;28;20035;-68
2022/04/04 02:04:15;;;;;;;8.52;5.15;;;;;;;3.24;55.02;95659.19;5104366;28;20024;-69
2022/04/04 02:06:40;;;;;;;7.03;5.28;;;;;;;3.24;54.94;95656.53;5106529;28;20030;-70
2022/04/04 02:09:06;;;;;;;7.57;5.40;;;;;;;3.15;56.06;95655.47;5105089;28;20027;-68
2022/04/04 02:11:32;;;;;;;6.78;4.88;;;;;;;3.14;55.52;95657.28;5104854;28;20443;-71
2022/04/04 02:13:58;;;;;;;6.18;5.05;;;;;;;3.15;55.56;95653.66;5104845;28;20441;-70
2022/04/04 02:16:25;;;;;;;7.63;5.45;;;;;;;3.30;55.07;95640.97;5104751;28;20031;-70
2022/04/04 02:18:50;;;;;;;9.65;5.18;;;;;;;3.24;55.44;95644.09;5105931;28;20501;-69
2022/04/04 02:21:16;;;;;;;7.95;5.13;;;;;;;3.12;55.90;95643.31;5086750;28;20051;-71
2022/04/04 02:23:41;;;;;;;7.78;5.65;;;;;;;3.04;55.71;95638.66;5087944;28;20023;-69
2022/04/04 02:26:07;;;;;;;6.45;5.25;;;;;;;3.03;55.96;95639.59;5105180;28;20359;-68
2022/04/04 02:28:32;;;;;;;6.82;5.22;;;;;;;3.08;55.66;95649.81;5106038;28;20027;-69
2022/04/04 02:30:58;;;;;;;6.75;5.18;;;;;;;3.03;55.65;95633.47;5105059;28;20020;-69
2022/04/04 02:33:24;;;;;;;9.95;5.95;;;;;;;2.91;55.34;95637.94;5105690;28;20031;-67
2022/04/04 02:35:50;;;;;;;7.47;5.15;;;;;;;2.93;55.69;95638.69;5105122;28;20065;-68
2022/04/04 02:38:16;;;;;;;6.78;5.38;;;;;;;2.96;55.68;95631.31;5105148;28;20080;-68
2022/04/04 02:40:41;;;;;;;9.93;5.82;;;;;;;3.02;54.55;95627.31;5105723;28;20023;-69
2022/04/04 02:43:07;;;;;;;7.25;5.15;;;;;;;3.03;54.96;95623.69;5104722;28;20027;-69
2022/04/04 02:45:32;;;;;;;6.85;5.30;;;;;;;3.03;54.87;95633.47;5087700;28;20473;-69
2022/04/04 02:47:58;;;;;;;7.35;5.60;;;;;;;2.95;54.77;95624.31;5103479;28;20031;-69
2022/04/04 02:50:24;;;;;;;7.03;5.30;;;;;;;3.00;54.54;95629.25;5105481;28;20032;-68
2022/04/04 02:52:49;;;;;;;5.93;4.80;;;;;;;3.02;54.32;95627.31;5086759;28;20378;-68
2022/04/04 02:57:59;;;;;;;8.70;5.50;;;;;;;2.89;54.98;95626.63;5105929;28;20035;-69
2022/04/04 03:00:25;;;;;;;7.65;5.45;;;;;;;2.88;54.25;95627.59;5103222;28;20425;-72
2022/04/04 03:02:51;;;;;;;6.85;5.50;;;;;;;2.93;54.71;95628.06;5104457;28;20510;-69
2022/04/04 03:05:16;;;;;;;6.15;5.07;;;;;;;2.92;54.92;95629.03;5104305;28;20468;-70
2022/04/04 03:07:42;;;;;;;6.00;4.85;;;;;;;2.89;54.85;95629.28;5105541;28;20525;-69
2022/04/04 03:10:08;;;;;;;6.88;4.93;;;;;;;2.87;54.42;95632.03;5103272;28;20149;-69
2022/04/04 03:12:33;;;;;;;7.97;5.63;;;;;;;2.80;54.95;95639.69;5104022;28;20028;-70
2022/04/04 03:14:58;;;;;;;8.60;5.90;;;;;;;2.72;55.36;95631.50;5103789;28;20543;-70
2022/04/04 03:17:25;;;;;;;8.20;6.10;;;;;;;2.80;55.11;95638.81;5104696;28;20038;-69
2022/04/04 03:19:51;;;;;;;8.18;6.07;;;;;;;2.86;54.79;95637.47;5105570;28;20042;-69
2022/04/04 03:22:17;;;;;;;8.95;6.68;;;;;;;2.76;55.09;95642.69;5102286;28;20525;-68
2022/04/04 03:24:43;;;;;;;8.02;6.43;;;;;;;2.74;55.46;95637.50;5104803;28;20054;-70
2022/04/04 03:27:09;;;;;;;8.43;5.93;;;;;;;2.79;54.86;95632.66;5073345;28;20511;-72
2022/04/04 03:29:34;;;;;;;7.75;5.78;;;;;;;2.84;54.60;95643.75;5109023;28;20026;-68
2022/04/04 03:32:00;;;;;;;8.13;6.13;;;;;;;2.75;55.44;95649.78;5108721;28;20016;-68
2022/04/04 03:34:27;;;;;;;13.80;6.05;;;;;;;2.62;55.60;95647.28;5108612;28;20027;-68
2022/04/04 03:36:52;;;;;;;9.68;5.75;;;;;;;2.61;55.48;95652.69;5109159;27;20059;-67
2022/04/04 03:39:18;;;;;;;7.70;5.78;;;;;;;2.57;55.67;95660.88;5106872;28;20051;-69
2022/04/04 03:41:47;;;;;;;10.55;6.60;;;;;;;2.64;55.67;95663.03;5109338;28;20028;-70
2022/04/04 03:44:12;;;;;;;9.27;6.43;;;;;;;2.53;55.64;95659.44;5106751;28;20428;-69
2022/04/04 03:46:38;;;;;;;9.30;6.45;;;;;;;2.51;55.95;95660.53;5108680;28;20031;-68
2022/04/04 03:49:05;;;;;;;10.30;6.57;;;;;;;2.50;56.29;95654.38;5107075;28;20118;-69
2022/04/04 03:51:30;;;;;;;8.18;6.20;;;;;;;2.51;55.92;95666.66;5090295;28;20478;-69
2022/04/04 03:53:56;;;;;;;9.95;7.05;;;;;;;2.43;55.84;95677.03;5108427;28;20067;-71
2022/04/04 03:56:21;;;;;;;9.77;6.53;;;;;;;2.39;56.46;95679.06;5106872;28;20023;-69
2022/04/04 03:58:47;;;;;;;11.18;7.32;;;;;;;2.34;56.75;95682.06;5107715;28;20019;-68
2022/04/04 04:01:12;;;;;;;8.40;6.38;;;;;;;2.30;56.64;95680.63;5107721;28;20026;-68
2022/04/04 04:03:37;;;;;;;8.70;6.70;;;;;;;2.31;56.93;95682.31;5107124;28;20031;-67
2022/04/04 04:06:12;;;;;;;10.18;6.45;;;;;;;2.42;56.01;95685.94;5107787;28;20068;-68
2022/04/04 04:08:45;;;;;;;9.20;6.70;;;;;;;2.37;55.86;95688.91;5106713;28;20460;-67
2022/04/04 04:11:11;;;;;;;;;;;;;;;2.38;55.96;95689.75;5108874;28;20020;-68
2022/04/04 04:13:37;;;;;;;8.75;6.00;;;;;;;2.34;56.45;95694.44;5106383;28;19926;-68
2022/04/04 04:16:03;;;;;;;9.43;6.25;;;;;;;2.28;56.96;95698.44;5108821;28;20027;-68
2022/04/04 04:18:29;;;;;;;9.25;6.60;;;;;;;2.34;56.16;95703.25;5105963;28;20020;-68
2022/04/04 04:20:55;;;;;;;9.45;7.00;;;;;;;2.30;56.94;95709.75;5108396;28;20108;-69
2022/04/04 04:23:21;;;;;;;9.23;7.07;;;;;;;2.27;57.06;95717.94;5107226;28;20043;-68
2022/04/04 04:25:46;;;;;;;9.95;6.47;;;;;;;2.37;57.02;95715.38;5089403;28;20050;-68
2022/04/04 04:28:11;;;;;;;8.52;6.28;;;;;;;2.32;57.00;95726.34;5106159;28;20024;-68
2022/04/04 04:30:37;;;;;;;9.15;6.80;;;;;;;2.42;56.79;95730.94;5107611;28;20024;-68
2022/04/04 04:33:03;;;;;;;8.27;6.38;;;;;;;2.59;56.33;95725.19;5106762;28;20023;-69
2022/04/04 04:35:29;;;;;;;10.15;7.28;;;;;;;2.57;56.23;95724.44;5105899;28;20023;-68
2022/04/04 04:37:54;;;;;;;10.18;6.85;;;;;;;2.57;56.31;95724.44;5106844;28;20098;-69
2022/04/04 04:40:20;;;;;;;8.98;6.68;;;;;;;2.57;57.06;95724.44;5105614;28;20038;-71
2022/04/04 04:42:46;;;;;;;10.77;7.82;;;;;;;2.64;57.26;95723.97;5107461;28;20053;-69
2022/04/04 04:45:12;;;;;;;13.73;7.50;;;;;;;2.75;56.93;95725.75;5088896;28;20042;-69
2022/04/04 04:47:37;;;;;;;11.65;7.32;;;;;;;2.80;56.38;95724.44;5088733;28;20405;-70
2022/04/04 04:50:04;;;;;;;11.70;7.60;;;;;;;2.82;56.92;95721.69;5105637;28;20035;-68
2022/04/04 04:52:30;;;;;;;10.63;7.70;;;;;;;2.87;56.68;95734.56;5105894;28;20024;-68
2022/04/04 04:54:55;;;;;;;11.90;8.30;;;;;;;2.87;56.60;95730.06;5107614;28;20443;-67
2022/04/04 04:57:21;;;;;;;8.95;6.93;;;;;;;2.94;56.52;95738.38;5106731;28;20034;-69
2022/04/04 04:59:47;;;;;;;10.63;8.00;;;;;;;2.96;56.81;95739.97;5106268;28;20563;-68
2022/04/04 05:02:12;;;;;;;10.70;7.90;;;;;;;3.01;57.07;95741.41;5088084;28;20067;-69
2022/04/04 05:04:38;;;;;;;14.20;9.15;;;;;;;3.10;57.83;95743.31;5107131;28;20028;-69
2022/04/04 05:07:05;;;;;;;15.90;8.90;;;;;;;3.18;58.11;95740.03;5105606;28;20073;-67
2022/04/04 05:09:30;;;;;;;13.30;8.35;;;;;;;3.27;57.42;95736.66;5107101;28;20043;-68
2022/04/04 05:11:55;;;;;;;15.00;9.68;;;;;;;3.36;57.12;95744.81;5107024;28;20028;-67
2022/04/04 05:14:21;;;;;;;18.42;10.82;;;;;;;3.33;57.60;95746.78;5106557;28;20023;-69
2022/04/04 05:16:47;;;;;;;19.65;10.82;;;;;;;3.30;57.97;95744.38;5107320;28;20031;-69
2022/04/04 05:19:13;;;;;;;15.15;9.82;;;;;;;3.30;58.10;95746.16;5106355;28;20032;-68
2022/04/04 05:21:39;;;;;;;16.63;9.35;;;;;;;3.29;57.42;95741.84;5088755;28;20024;-68
2022/04/04 05:24:05;;;;;;;14.50;8.63;;;;;;;3.30;57.71;95747.03;5105903;28;20502;-70
2022/04/04 05:26:31;;;;;;;13.20;9.07;;;;;;;3.38;57.56;95745.53;5107270;28;20446;-68
2022/04/04 05:28:57;;;;;;;15.57;9.15;;;;;;;3.43;57.24;95762.75;5105472;28;20026;-69
2022/04/04 05:31:23;;;;;;;15.73;8.50;;;;;;;3.52;57.37;95765.63;5106660;28;20444;-68
2022/04/04 05:33:48;;;;;;;13.10;8.88;;;;;;;3.53;57.02;95767.34;5106731;28;20387;-68
2022/04/04 05:36:14;;;;;;;14.93;8.65;;;;;;;3.54;57.62;95775.16;5105779;28;20027;-68
2022/04/04 05:38:39;;;;;;;16.80;8.98;;;;;;;3.51;57.66;95767.47;5105533;28;20024;-68
2022/04/04 05:41:04;;;;;;;14.77;9.30;;;;;;;3.51;58.06;95774.56;5105646;28;20444;-69
2022/04/04 05:43:30;;;;;;;17.88;9.68;;;;;;;3.57;57.20;95774.91;5106478;28;20031;-68
2022/04/04 05:45:55;;;;;;;17.77;9.43;;;;;;;3.63;57.28;95778.03;5105959;28;20367;-68
2022/04/04 05:48:21;;;;;;;13.68;9.68;;;;;;;3.63;57.44;95776.22;5087316;28;20028;-69
2022/04/04 05:50:46;;;;;;;16.67;9.10;;;;;;;3.63;57.40;95780.69;5106443;28;20114;-70
2022/04/04 05:53:12;;;;;;;18.55;9.75;;;;;;;3.69;57.47;95781.00;5104222;28;20024;-69
2022/04/04 05:55:37;;;;;;;13.35;9.45;;;;;;;3.72;57.91;95782.59;5105418;28;20028;-68
2022/04/04 05:58:03;;;;;;;14.65;8.82;;;;;;;3.81;57.73;95781.81;5103858;28;20019;-70
2022/04/04 06:00:28;;;;;;;13.25;8.73;;;;;;;3.90;57.71;95782.88;5106455;28;20023;-69
2022/04/04 06:02:54;;;;;;;11.63;8.27;;;;;;;4.01;56.77;95770.53;5104055;28;20028;-68
2022/04/04 06:05:19;;;;;;;11.90;8.57;;;;;;;4.15;56.33;95772.03;5106611;28;20505;-68
2022/04/04 06:07:45;;;;;;;13.90;8.45;;;;;;;4.28;56.27;95785.13;5105806;28;20509;-68
2022/04/04 06:10:11;;;;;;;15.00;8.43;;;;;;;4.45;56.42;95773.06;5104069;28;20038;-68
2022/04/04 06:12:40;;;;;;;10.10;7.50;;;;;;;4.54;55.36;95769.63;5088003;28;20504;-68
2022/04/04 06:15:06;;;;;;;11.75;8.18;;;;;;;4.65;55.12;95767.84;5105105;28;20091;-68
2022/04/04 06:17:31;;;;;;;11.02;8.40;;;;;;;4.69;55.26;95758.66;5106334;27;20043;-68
2022/04/04 06:19:58;;;;;;;10.68;7.97;;;;;;;4.78;53.92;95763.19;5104038;28;20023;-68
2022/04/04 06:22:23;;;;;;;13.27;8.35;;;;;;;4.90;53.91;95765.75;5104579;28;20093;-68
2022/04/04 06:24:49;;;;;;;12.18;8.35;;;;;;;5.02;52.64;95764.69;5103951;28;20126;-69
2022/04/04 06:27:17;;;;;;;11.88;7.93;;;;;;;5.13;53.09;95766.38;5105315;28;20027;-68
2022/04/04 06:29:43;;;;;;;10.25;7.55;;;;;;;5.34;52.31;95772.63;5105858;27;20478;-69
2022/04/04 06:32:11;;;;;;;9.98;7.53;;;;;;;5.31;52.67;95765.75;5105004;28;20028;-68
2022/04/04 06:34:37;;;;;;;11.95;7.68;;;;;;;5.43;51.50;95755.84;5105076;28;20020;-71
2022/04/04 06:37:04;;;;;;;12.13;7.85;;;;;;;5.52;52.52;95760.34;5103203;28;20224;-68
2022/04/04 06:39:30;;;;;;;11.25;8.43;;;;;;;5.60;50.54;95764.13;5087536;28;20153;-67
2022/04/04 06:41:56;;;;;;;12.27;8.35;;;;;;;5.65;49.90;95765.41;5103743;28;20024;-68
2022/04/04 06:44:21;;;;;;;10.35;8.23;;;;;;;5.67;51.23;95762.59;5105038;28;20098;-68
2022/04/04 06:46:47;;;;;;;12.32;8.57;;;;;;;5.72;51.31;95770.16;5105255;28;20404;-67
2022/04/04 06:49:12;;;;;;;12.30;8.57;;;;;;;5.75;51.23;95767.22;5104977;28;20031;-68
2022/04/04 06:51:38;;;;;;;11.38;7.82;;;;;;;5.80;50.10;95768.47;5105873;28;20093;-69
2022/04/04 06:54:05;;;;;;;13.98;8.48;;;;;;;5.90;49.87;95773.00;5104731;28;20405;-69
2022/04/04 06:56:31;;;;;;;12.57;8.10;;;;;;;5.98;49.55;95770.44;5105720;28;20027;-67
2022/04/04 06:58:57;;;;;;;12.50;7.50;;;;;;;6.12;47.93;95782.56;5104622;28;20092;-68
2022/04/04 07:01:23;;;;;;;12.45;8.00;;;;;;;6.23;48.13;95764.72;5109406;28;20057;-68
2022/04/04 07:03:48;;;;;;;7.65;6.60;;;;;;;6.27;46.93;95768.81;5109389;28;20069;-70
2022/04/04 07:06:14;;;;;;;8.52;7.43;;;;;;;6.34;47.05;95780.56;5109189;28;20057;-68
2022/04/04 07:08:39;;;;;;;10.82;7.68;;;;;;;6.42;46.91;95772.72;5109657;28;20023;-69
2022/04/04 07:11:05;;;;;;;7.35;6.28;;;;;;;6.49;46.20;95780.13;5109081;28;20019;-68
2022/04/04 07:13:34;;;;;;;8.93;7.22;;;;;;;6.51;45.50;95773.66;5109552;28;20027;-68
2022/04/04 07:15:59;;;;;;;8.25;6.43;;;;;;;6.65;45.64;95776.88;5108640;28;20024;-66
2022/04/04 07:18:24;;;;;;;7.72;6.50;;;;;;;6.74;44.85;95783.19;5109464;27;20053;-68
2022/04/04 07:20:50;;;;;;;7.85;6.50;;;;;;;6.81;44.85;95781.59;5109020;28;20023;-69
2022/04/04 07:23:15;;;;;;;8.13;6.53;;;;;;;6.85;44.69;95782.16;5108791;28;20044;-69
2022/04/04 07:25:41;;;;;;;8.50;6.57;;;;;;;6.91;44.91;95776.25;5109265;28;20024;-68
2022/04/04 07:28:08;;;;;;;11.07;6.78;;;;;;;7.07;44.79;95772.94;5107393;28;20024;-67
2022/04/04 07:30:33;;;;;;;8.40;6.20;;;;;;;7.23;44.24;95788.34;5109631;28;20011;-68
2022/04/04 07:33:01;;;;;;;7.93;6.22;;;;;;;7.28;43.91;95787.88;5108551;28;20035;-70
2022/04/04 07:35:27;;;;;;;8.65;6.90;;;;;;;7.39;44.01;95786.84;5109027;28;20024;-68
2022/04/04 07:37:52;;;;;;;9.20;6.50;;;;;;;7.45;42.77;95783.56;5090192;28;20355;-69
2022/04/04 07:40:19;;;;;;;8.95;7.00;;;;;;;7.54;42.69;95788.00;5108996;28;20016;-70
2022/04/04 07:42:45;;;;;;;8.63;7.03;;;;;;;7.71;41.81;95782.88;5108444;28;20432;-68
2022/04/04 07:45:11;;;;;;;7.18;6.00;;;;;;;7.71;42.19;95782.00;5108749;28;20027;-68
2022/04/04 07:47:37;;;;;;;9.23;6.70;;;;;;;7.82;42.77;95779.13;5107182;28;20028;-69
2022/04/04 07:50:03;;;;;;;9.27;5.80;;;;;;;7.95;41.96;95781.44;5107085;28;20084;-69
2022/04/04 07:52:28;;;;;;;7.35;6.07;;;;;;;7.96;41.89;95795.63;5090881;28;20023;-67
2022/04/04 07:54:54;;;;;;;6.68;5.65;;;;;;;7.96;41.29;95796.50;5106624;28;20023;-68
2022/04/04 07:57:22;;;;;;;8.02;6.43;;;;;;;8.00;41.42;95791.66;5108772;28;20027;-67
2022/04/04 07:59:50;;;;;;;7.70;6.13;;;;;;;8.01;40.84;95796.84;5107822;28;20039;-68
2022/04/04 08:02:16;;;;;;;9.38;6.30;;;;;;;7.99;40.94;95795.34;5108309;27;20559;-68
2022/04/04 08:04:41;;;;;;;8.65;5.75;;;;;;;8.10;40.33;95794.25;5106643;28;20032;-68
2022/04/04 08:07:07;;;;;;;7.38;5.90;;;;;;;8.15;41.09;95795.50;5107808;28;20032;-68
2022/04/04 08:09:32;;;;;;;7.90;6.75;;;;;;;8.24;41.78;95795.56;5106377;28;20076;-68
2022/04/04 08:11:58;;;;;;;7.80;5.65;;;;;;;8.24;40.64;95783.03;5107444;28;20019;-68
2022/04/04 08:14:23;;;;;;;6.65;5.55;;;;;;;8.23;40.35;95781.38;5108467;28;20466;-67
2022/04/04 08:16:50;;;;;;;7.00;5.47;;;;;;;8.25;39.70;95782.03;5107503;28;20022;-67
2022/04/04 08:19:15;;;;;;;8.20;5.57;;;;;;;8.33;39.29;95783.13;5108392;28;20034;-68
2022/04/04 08:21:44;;;;;;;8.32;6.03;;;;;;;8.36;40.09;95785.47;5107735;28;20028;-68
2022/04/04 08:24:10;;;;;;;8.98;6.40;;;;;;;8.41;39.97;95783.19;5106324;28;20043;-67
2022/04/04 08:26:36;;;;;;;11.95;5.70;;;;;;;8.46;40.69;95780.03;5106620;28;20047;-68
2022/04/04 08:29:01;;;;;;;8.50;6.32;;;;;;;8.55;40.04;95776.47;5088967;28;20028;-68
2022/04/04 08:31:27;;;;;;;7.72;5.85;;;;;;;8.59;39.58;95774.31;5108688;28;20035;-68
2022/04/04 08:33:52;;;;;;;8.07;6.15;;;;;;;8.61;39.31;95765.16;5107113;28;20043;-70
2022/04/04 08:36:18;;;;;;;13.95;8.10;;;;;;;8.61;39.45;95761.66;5107940;28;20032;-69
2022/04/04 08:38:43;;;;;;;8.05;6.35;;;;;;;8.72;39.37;95764.03;5107070;28;20027;-68
2022/04/04 08:41:10;;;;;;;7.72;6.00;;;;;;;8.75;39.30;95760.22;5107705;28;20028;-68
2022/04/04 08:43:37;;;;;;;7.85;5.85;;;;;;;8.72;40.06;95758.69;5107553;28;20059;-71
2022/04/04 08:46:04;;;;;;;7.43;6.25;;;;;;;8.77;39.71;95750.19;5107764;28;20027;-68
2022/04/04 08:48:32;;;;;;;8.43;6.05;;;;;;;8.81;39.78;95753.41;5108033;28;20046;-67
2022/04/04 08:50:58;;;;;;;7.90;5.80;;;;;;;8.88;39.62;95741.09;5106556;28;20482;-68
2022/04/04 08:53:23;;;;;;;8.50;6.40;;;;;;;8.98;39.83;95736.44;5107703;28;20027;-68
2022/04/04 08:55:49;;;;;;;9.73;6.70;;;;;;;9.02;39.09;95728.94;5106551;28;20019;-68
2022/04/04 08:58:15;;;;;;;8.10;6.70;;;;;;;9.06;39.91;95724.94;5105974;28;20486;-68
2022/04/04 09:00:41;;;;;;;8.00;5.97;;;;;;;9.11;38.66;95729.81;5106538;28;20478;-68
2022/04/04 09:03:08;;;;;;;9.07;5.93;;;;;;;9.19;39.65;95726.34;5107209;28;20102;-67
2022/04/04 09:05:34;;;;;;;8.43;6.07;;;;;;;9.28;38.92;95726.19;5107809;28;20100;-67
2022/04/04 09:08:00;;;;;;;8.73;6.40;;;;;;;9.34;39.51;95723.88;5104932;28;20878;-68
2022/04/04 09:10:36;;;;;;;9.55;6.65;;;;;;;9.44;39.38;95721.06;5107610;28;20028;-68
2022/04/04 09:13:09;;;;;;;7.32;5.63;;;;;;;9.51;38.93;95709.53;5105991;28;20027;-68
2022/04/04 09:15:53;;;;;;;6.88;5.80;;;;;;;9.54;38.56;95713.75;5107188;28;20478;-67
2022/04/04 09:18:19;;;;;;;9.63;5.70;;;;;;;9.49;39.18;95708.03;5107188;28;20035;-68
2022/04/04 09:20:50;;;;;;;7.97;5.55;;;;;;;9.53;38.54;95706.69;5106316;28;20058;-68
2022/04/04 09:23:16;;;;;;;7.07;5.20;;;;;;;9.52;38.26;95703.22;5106169;28;20528;-68
2022/04/04 09:25:41;;;;;;;7.25;5.60;;;;;;;9.46;38.35;95701.16;5105965;28;20028;-67
2022/04/04 09:28:17;;;;;;;7.15;5.30;;;;;;;9.52;39.86;95689.81;5107132;28;20035;-67
2022/04/04 09:30:43;;;;;;;8.10;5.50;;;;;;;9.61;38.58;95692.47;5105185;28;20020;-67
2022/04/04 09:33:15;;;;;;;9.05;6.07;;;;;;;9.67;38.15;95694.53;5105056;28;20099;-67
2022/04/04 09:35:48;;;;;;;8.73;5.60;;;;;;;9.69;38.17;95679.13;5105543;28;20500;-67
2022/04/04 09:38:14;;;;;;;8.05;6.35;;;;;;;9.80;38.77;95685.16;5104947;28;20031;-68
2022/04/04 09:40:39;;;;;;;10.80;5.35;;;;;;;9.92;37.92;95685.66;5105579;28;20031;-67
2022/04/04 09:43:05;;;;;;;8.25;6.15;;;;;;;9.99;38.35;95690.22;5105692;28;20056;-68
2022/04/04 09:45:30;;;;;;;8.95;5.80;;;;;;;9.98;37.64;95685.00;5106893;28;20032;-68
2022/04/04 09:48:11;;;;;;;6.65;5.50;;;;;;;10.02;38.04;95684.50;5105701;28;20573;-70
2022/04/04 09:50:40;;;;;;;7.43;5.70;;;;;;;10.15;38.48;95680.50;5105204;28;20521;-67
2022/04/04 09:53:19;;;;;;;7.32;5.30;;;;;;;10.20;37.27;95679.97;5106291;28;20031;-68
2022/04/04 09:55:46;;;;;;;7.18;5.72;;;;;;;10.11;37.68;95671.94;5105326;28;20058;-68
2022/04/04 09:58:15;;;;;;;7.03;5.82;;;;;;;10.16;38.43;95663.38;5106319;28;20096;-69
2022/04/04 10:00:42;;;;;;;9.00;6.50;;;;;;;10.27;37.66;95652.31;5104296;28;20039;-67
2022/04/04 10:03:12;;;;;;;10.07;5.43;;;;;;;10.39;38.23;95651.97;5106087;28;20455;-68
2022/04/04 10:05:39;;;;;;;6.75;5.22;;;;;;;10.40;38.08;95645.59;5106512;28;20092;-68
2022/04/04 10:08:04;;;;;;;8.32;5.43;;;;;;;10.32;37.05;95630.38;5104067;28;20020;-67
2022/04/04 10:10:30;;;;;;;6.63;5.40;;;;;;;10.44;38.25;95630.00;5106309;28;20027;-67
2022/04/04 10:12:56;;;;;;;8.27;6.00;;;;;;;10.59;37.57;95633.69;5105338;28;20030;-67
2022/04/04 10:15:22;;;;;;;7.10;5.65;;;;;;;10.63;36.78;95626.97;5106224;28;20055;-69
2022/04/04 10:17:52;;;;;;;6.32;5.32;;;;;;;10.68;37.22;95614.88;5103973;28;20050;-66
2022/04/04 10:20:18;;;;;;;6.47;5.07;;;;;;;10.69;36.77;95622.75;5105531;28;20032;-68
2022/04/04 10:22:44;;;;;;;6.40;5.55;;;;;;;10.69;38.67;95620.06;5105722;28;20371;-69
2022/04/04 10:25:11;;;;;;;7.65;5.97;;;;;;;10.82;38.27;95605.25;5086955;28;20051;-69
2022/04/04 10:27:36;;;;;;;6.75;5.30;;;;;;;10.92;37.18;95602.38;5087839;28;20027;-70
2022/04/04 10:30:06;;;;;;;6.03;5.25;;;;;;;10.92;37.37;95599.69;5105264;28;20340;-70
2022/04/04 10:32:31;;;;;;;7.25;5.25;;;;;;;10.88;36.74;95596.53;5106470;28;20070;-67
2022/04/04 10:34:57;;;;;;;7.63;6.20;;;;;;;10.83;37.03;95588.16;5086419;28;20023;-68
2022/04/04 10:37:31;;;;;;;7.57;5.63;;;;;;;10.81;36.69;95591.03;5104367;28;20028;-68
2022/04/04 10:39:57;;;;;;;7.03;5.18;;;;;;;10.80;36.93;95591.22;5105168;28;20020;-68
2022/04/04 10:42:26;;;;;;;5.85;5.18;;;;;;;10.86;37.62;95587.81;5103815;28;20120;-71
2022/04/04 10:44:59;;;;;;;6.93;5.38;;;;;;;10.83;38.13;95589.00;5105828;28;20110;-68
2022/04/04 10:47:25;;;;;;;6.45;4.70;;;;;;;10.89;36.68;95587.47;5104601;28;20028;-68
2022/04/04 10:49:51;;;;;;;6.13;5.05;;;;;;;10.88;37.66;95583.94;5106101;28;20028;-67
2022/04/04 10:52:23;;;;;;;6.07;5.25;;;;;;;10.90;37.26;95586.44;5103210;28;20028;-67
2022/04/04 10:54:48;;;;;;;7.82;5.18;;;;;;;10.91;36.63;95585.47;5105565;28;20034;-70
2022/04/04 10:57:17;;;;;;;6.85;5.40;;;;;;;10.92;37.41;95575.53;5104795;28;20035;-67
2022/04/04 10:59:46;;;;;;;5.82;4.80;;;;;;;11.05;37.57;95575.81;5105353;28;20074;-69
2022/04/04 11:02:13;;;;;;;6.57;5.20;;;;;;;11.16;36.69;95568.34;5104041;28;20024;-67
2022/04/04 11:07:38;;;;;;;8.00;5.03;;;;;;;11.24;36.70;95579.91;5104827;28;20084;-71
2022/04/04 11:07:41;;;;;;;6.70;4.95;;;;;;;11.26;36.24;95571.66;5104258;28;20066;-68
2022/04/04 11:10:08;;;;;;;6.35;4.90;;;;;;;11.44;36.66;95574.06;5104773;28;20100;-68
2022/04/04 11:13:05;;;;;;;7.10;4.88;;;;;;;11.53;36.34;95568.59;5103395;28;20039;-69
2022/04/04 11:15:51;;;;;;;6.28;5.28;;;;;;;11.53;37.07;95571.28;5105298;28;20176;-67
2022/04/04 11:18:17;;;;;;;7.68;4.93;;;;;;;11.62;36.10;95567.56;5103038;28;20016;-69
2022/04/04 11:20:50;;;;;;;6.35;5.50;;;;;;;11.66;36.27;95570.69;5104999;28;20096;-68
2022/04/04 11:23:17;;;;;;;6.65;5.13;;;;;;;11.70;36.09;95561.28;5104488;28;20028;-67
2022/04/04 11:25:51;;;;;;;9.40;5.05;;;;;;;11.74;35.85;95557.19;5104328;28;20028;-68
2022/04/04 11:28:20;;;;;;;5.05;4.55;;;;;;;11.79;36.55;95545.91;5105420;28;20028;-68
2022/04/04 11:30:46;;;;;;;6.32;5.28;;;;;;;11.74;35.59;95544.59;5104435;28;20453;-67
2022/04/04 11:33:21;;;;;;;8.55;5.07;;;;;;;11.76;35.85;95541.72;5104118;28;20104;-69
2022/04/04 11:35:48;;;;;;;7.22;4.90;;;;;;;11.75;35.44;95538.19;5104448;28;20034;-69
2022/04/04 11:38:17;;;;;;;6.38;5.22;;;;;;;11.78;35.76;95546.94;5103986;28;20393;-69